Williamsport Regional Airport Williamsport US
ICAO: KIPT
IATA: IPT
Category: Medium
Scheduled Services: Yes

Elevation: 529 ft
TransAlt. 18000 ft.

Airport Communications:
ASOS:125.225
NEW YORK CLNC DEL:124.9
NEW YORK CNTR:124.9
CTAF:119.1
GND:121.9
RDO:122.2
TWR:119.1
UNICOM:122.95

KIPT Zoom In..

Runways:

(A) RW 09 length 6824 ft width 150 ft
---- / hdg 87

(B) RW 12 length 4273 ft width 150 ft
---- / hdg 116

(C) RW 27 length 6824 ft width 150 ft
ILS 110.10 / hdg 267

(D) RW 30 length 4273 ft width 150 ft
---- / hdg 296

Location; KIPT
Day. 07 / Time. 18.54 Zulu
* Altimeter: 29.79
* Temperature: 18° c. 64.4°f.
* Wind from: 130° Speed 08 kn.
Dewpoint: -02° c.
Visibility: 10 Statute Miles.
Clouds: Overcast 1000 ft.

KIPT 071854Z 13008KT 10SM OVC100 18/M02 A2979 RMK AO2 SLP089 T01831022


Wind From 130°
Speed 08 kn.

 
 
jpsmedia worldairports.se 2020   terms of use